Ballarat, Victoria

4:31 PM AEST on October 02, 2014 (GMT +1000)
Delacombe | Change Station
CLOSE
Current Station
Personal Weather Station
Location: Ballarat, VICTORIA
Elevation: 1400 ft
Nearby Weather Stations

Elev 1400 ft 37.58 °S, 143.81 °E | Updated 10 minutes ago

Overcast
Overcast
57.2 °F
Feels Like 57.2 °F
N
0.0
Wind Variable Wind from North
Gusts 0.0 mph

Today
High -- | Low -- °F
--% Chance of Precip.
Yesterday
High -- | Low -- °F
Precip. -- in
5:59 AM 6:29 PM
First Quarter, 55% visible
Pressure 30.18 in
Visibility 6.2 miles
Clouds Overcast 4200 ft
Dew Point 25 °F
Humidity 29%
Rainfall 0.00 in
Snow Depth Not available.
UV 1 out of 12
Pollen Not available.
Air Quality Not available.
Flu Activity Not available.
METAR YMAV 020600Z AUTO 27016KT 9999 // OVC042 17/09 Q1022

More Conditions Fewer Conditions

Pressure 30.18 in
Visibility 6.2 miles
Clouds Overcast 4200 ft
Dew Point 25 °F
Humidity 29%
Rainfall 0.00 in
Snow Depth Not available.
UV 1 out of 12
Pollen Not available.
Air Quality Not available.
Flu Activity Not available.
METAR YMAV 020600Z AUTO 27016KT 9999 // OVC042 17/09 Q1022

More Conditions Fewer Conditions

10-Day Weather Forecast

Almanac

Astronomy

Oct. 02, 2014 Rise Set
Actual Time 5:59 AM AEST 6:29 PM AEST
Civil Twilight 5:33 AM AEST 6:55 PM AEST
Nautical Twilight 5:02 AM AEST 7:26 PM AEST
Astronomical Twilight 4:31 AM AEST 7:58 PM AEST
Moon 11:37 AM AEST 1:06 AM AEST
Length of Visible Light 13h 22m
Length of Day
12h 29m
Tomorrow will be 2m 24s longer.
First Quarter, 55% of the Moon is Illuminated
Today
First Quarter
Oct 8
Full
Oct 15
Last Quarter
Oct 23
New
Oct 30
First Quarter

Yesterday's Extremes

Country Highs Country Lows

Community

WunderPhotos

Upload Photos

1,758,198 photos uploaded!

WunderBlogs® & News

Nearby

Snow Depth

Not available.

Earthquake Activity

City Distance Mag. Time & Date
No recent earthquake activity has been reported nearby.
Minimum magnitude displayed is 2.5.

Coastal Water Temperatures

Place Temperature
No Stations Reporting

Nearby Weather Stations